sensor_id;sensor_type;location;lat;lon;timestamp;temperature;humidity
12130;DHT22;6128;59.340;18.040;2023-12-07T00:01:52;-7.00;99.90
12130;DHT22;6128;59.340;18.040;2023-12-07T00:04:19;-7.00;99.90
12130;DHT22;6128;59.340;18.040;2023-12-07T00:06:46;-6.90;99.90
12130;DHT22;6128;59.340;18.040;2023-12-07T00:09:14;-6.80;99.90
12130;DHT22;6128;59.340;18.040;2023-12-07T00:11:42;-6.80;99.90
12130;DHT22;6128;59.340;18.040;2023-12-07T00:14:10;-6.90;99.90
12130;DHT22;6128;59.340;18.040;2023-12-07T00:16:37;-6.80;99.90
12130;DHT22;6128;59.340;18.040;2023-12-07T00:19:04;-6.80;99.90
12130;DHT22;6128;59.340;18.040;2023-12-07T00:21:31;-6.80;99.90
12130;DHT22;6128;59.340;18.040;2023-12-07T00:23:58;-6.70;99.90
12130;DHT22;6128;59.340;18.040;2023-12-07T00:26:26;-6.60;99.90
12130;DHT22;6128;59.340;18.040;2023-12-07T00:28:55;-6.60;99.90
12130;DHT22;6128;59.340;18.040;2023-12-07T00:31:22;-6.50;99.90
12130;DHT22;6128;59.340;18.040;2023-12-07T00:33:49;-6.50;99.90
12130;DHT22;6128;59.340;18.040;2023-12-07T00:36:16;-6.50;99.90
12130;DHT22;6128;59.340;18.040;2023-12-07T00:38:43;-6.50;99.90
12130;DHT22;6128;59.340;18.040;2023-12-07T00:41:10;-6.50;99.90
12130;DHT22;6128;59.340;18.040;2023-12-07T00:43:37;-6.50;99.90
12130;DHT22;6128;59.340;18.040;2023-12-07T00:46:06;-6.50;99.90
12130;DHT22;6128;59.340;18.040;2023-12-07T00:48:36;-6.40;99.90
12130;DHT22;6128;59.340;18.040;2023-12-07T00:51:03;-6.50;99.90
12130;DHT22;6128;59.340;18.040;2023-12-07T00:53:31;-6.40;99.90
12130;DHT22;6128;59.340;18.040;2023-12-07T00:55:58;-6.40;99.90
12130;DHT22;6128;59.340;18.040;2023-12-07T00:58:25;-6.40;99.90
12130;DHT22;6128;59.340;18.040;2023-12-07T01:00:53;-6.30;99.90
12130;DHT22;6128;59.340;18.040;2023-12-07T01:03:21;-6.30;99.90
12130;DHT22;6128;59.340;18.040;2023-12-07T01:05:48;-6.30;99.90
12130;DHT22;6128;59.340;18.040;2023-12-07T01:08:15;-6.20;99.90
12130;DHT22;6128;59.340;18.040;2023-12-07T01:10:42;-6.20;99.90
12130;DHT22;6128;59.340;18.040;2023-12-07T01:13:09;-6.10;99.90
12130;DHT22;6128;59.340;18.040;2023-12-07T01:15:36;-6.10;99.90
12130;DHT22;6128;59.340;18.040;2023-12-07T01:18:03;-6.10;99.90
12130;DHT22;6128;59.340;18.040;2023-12-07T01:20:32;-6.00;99.90
12130;DHT22;6128;59.340;18.040;2023-12-07T01:22:59;-6.00;99.90
12130;DHT22;6128;59.340;18.040;2023-12-07T01:25:26;-5.90;99.90
12130;DHT22;6128;59.340;18.040;2023-12-07T01:27:53;-5.90;99.90
12130;DHT22;6128;59.340;18.040;2023-12-07T01:30:20;-5.90;99.90
12130;DHT22;6128;59.340;18.040;2023-12-07T01:32:47;-5.80;99.90
12130;DHT22;6128;59.340;18.040;2023-12-07T01:35:14;-5.80;99.90
12130;DHT22;6128;59.340;18.040;2023-12-07T01:37:42;-5.70;99.90
12130;DHT22;6128;59.340;18.040;2023-12-07T01:40:10;-5.70;99.90
12130;DHT22;6128;59.340;18.040;2023-12-07T01:42:37;-5.70;99.90
12130;DHT22;6128;59.340;18.040;2023-12-07T01:45:05;-5.70;99.90
12130;DHT22;6128;59.340;18.040;2023-12-07T01:47:35;-5.70;99.90
12130;DHT22;6128;59.340;18.040;2023-12-07T01:50:05;-5.70;99.90
12130;DHT22;6128;59.340;18.040;2023-12-07T01:52:33;-5.80;99.90
12130;DHT22;6128;59.340;18.040;2023-12-07T01:55:04;-5.90;99.90
12130;DHT22;6128;59.340;18.040;2023-12-07T01:57:32;-5.80;99.90
12130;DHT22;6128;59.340;18.040;2023-12-07T01:59:59;-5.90;99.90
12130;DHT22;6128;59.340;18.040;2023-12-07T02:02:26;-5.90;99.90
12130;DHT22;6128;59.340;18.040;2023-12-07T02:04:54;-5.90;99.90
12130;DHT22;6128;59.340;18.040;2023-12-07T02:07:23;-5.90;99.90
12130;DHT22;6128;59.340;18.040;2023-12-07T02:09:50;-5.90;99.90
12130;DHT22;6128;59.340;18.040;2023-12-07T02:12:18;-5.80;99.90
12130;DHT22;6128;59.340;18.040;2023-12-07T02:14:46;-5.80;99.90
12130;DHT22;6128;59.340;18.040;2023-12-07T02:17:16;-5.80;99.90
12130;DHT22;6128;59.340;18.040;2023-12-07T02:19:55;-5.80;99.90
12130;DHT22;6128;59.340;18.040;2023-12-07T02:22:27;-5.80;99.90
12130;DHT22;6128;59.340;18.040;2023-12-07T02:25:06;-5.80;99.90
12130;DHT22;6128;59.340;18.040;2023-12-07T02:27:39;-5.80;99.90
12130;DHT22;6128;59.340;18.040;2023-12-07T02:30:07;-5.70;99.90
12130;DHT22;6128;59.340;18.040;2023-12-07T02:32:36;-5.70;99.90
12130;DHT22;6128;59.340;18.040;2023-12-07T02:35:03;-5.70;99.90
12130;DHT22;6128;59.340;18.040;2023-12-07T02:37:34;-5.70;99.90
12130;DHT22;6128;59.340;18.040;2023-12-07T02:40:05;-5.70;99.90
12130;DHT22;6128;59.340;18.040;2023-12-07T02:42:39;-5.70;99.90
12130;DHT22;6128;59.340;18.040;2023-12-07T02:45:09;-5.70;99.90
12130;DHT22;6128;59.340;18.040;2023-12-07T02:47:37;-5.70;99.90
12130;DHT22;6128;59.340;18.040;2023-12-07T02:50:06;-5.70;99.90
12130;DHT22;6128;59.340;18.040;2023-12-07T02:52:33;-5.70;99.90
12130;DHT22;6128;59.340;18.040;2023-12-07T02:55:01;-5.70;99.90
12130;DHT22;6128;59.340;18.040;2023-12-07T02:57:28;-5.70;99.90
12130;DHT22;6128;59.340;18.040;2023-12-07T02:59:56;-5.70;99.90
12130;DHT22;6128;59.340;18.040;2023-12-07T03:02:23;-5.70;99.90
12130;DHT22;6128;59.340;18.040;2023-12-07T03:04:50;-5.60;99.90
12130;DHT22;6128;59.340;18.040;2023-12-07T03:07:17;-5.60;99.90
12130;DHT22;6128;59.340;18.040;2023-12-07T03:09:44;-5.60;99.90
12130;DHT22;6128;59.340;18.040;2023-12-07T03:12:11;-5.60;99.90
12130;DHT22;6128;59.340;18.040;2023-12-07T03:14:38;-5.60;99.90
12130;DHT22;6128;59.340;18.040;2023-12-07T03:17:07;-5.60;99.90
12130;DHT22;6128;59.340;18.040;2023-12-07T03:19:37;-5.60;99.90
12130;DHT22;6128;59.340;18.040;2023-12-07T03:22:04;-5.70;99.90
12130;DHT22;6128;59.340;18.040;2023-12-07T03:24:32;-5.60;99.90
12130;DHT22;6128;59.340;18.040;2023-12-07T03:26:59;-5.60;99.90
12130;DHT22;6128;59.340;18.040;2023-12-07T03:29:26;-5.60;99.90
12130;DHT22;6128;59.340;18.040;2023-12-07T03:31:53;-5.60;99.90
12130;DHT22;6128;59.340;18.040;2023-12-07T03:34:22;-5.60;99.90
12130;DHT22;6128;59.340;18.040;2023-12-07T03:36:49;-5.60;99.90
12130;DHT22;6128;59.340;18.040;2023-12-07T03:39:17;-5.60;99.90
12130;DHT22;6128;59.340;18.040;2023-12-07T03:41:44;-5.60;99.90
12130;DHT22;6128;59.340;18.040;2023-12-07T03:44:11;-5.60;99.90
12130;DHT22;6128;59.340;18.040;2023-12-07T03:46:38;-5.60;99.90
12130;DHT22;6128;59.340;18.040;2023-12-07T03:49:05;-5.50;99.90
12130;DHT22;6128;59.340;18.040;2023-12-07T03:51:34;-5.50;99.90
12130;DHT22;6128;59.340;18.040;2023-12-07T03:54:02;-5.50;99.90
12130;DHT22;6128;59.340;18.040;2023-12-07T03:56:30;-5.60;99.90
12130;DHT22;6128;59.340;18.040;2023-12-07T03:58:57;-5.50;99.90
12130;DHT22;6128;59.340;18.040;2023-12-07T04:01:25;-5.60;99.90
12130;DHT22;6128;59.340;18.040;2023-12-07T04:03:52;-5.60;99.90
12130;DHT22;6128;59.340;18.040;2023-12-07T04:06:20;-5.50;99.90
12130;DHT22;6128;59.340;18.040;2023-12-07T04:08:49;-5.50;99.90
12130;DHT22;6128;59.340;18.040;2023-12-07T04:11:16;-5.60;99.90
12130;DHT22;6128;59.340;18.040;2023-12-07T04:13:43;-5.60;99.90
12130;DHT22;6128;59.340;18.040;2023-12-07T04:16:11;-5.60;99.90
12130;DHT22;6128;59.340;18.040;2023-12-07T04:18:38;-5.60;99.90
12130;DHT22;6128;59.340;18.040;2023-12-07T04:21:05;-5.60;99.90
12130;DHT22;6128;59.340;18.040;2023-12-07T04:23:33;-5.60;99.90
12130;DHT22;6128;59.340;18.040;2023-12-07T04:26:01;-5.50;99.90
12130;DHT22;6128;59.340;18.040;2023-12-07T04:28:29;-5.50;99.90
12130;DHT22;6128;59.340;18.040;2023-12-07T04:30:56;-5.50;99.90
12130;DHT22;6128;59.340;18.040;2023-12-07T04:33:23;-5.50;99.90
12130;DHT22;6128;59.340;18.040;2023-12-07T04:35:50;-5.40;99.90
12130;DHT22;6128;59.340;18.040;2023-12-07T04:38:17;-5.40;99.90
12130;DHT22;6128;59.340;18.040;2023-12-07T04:40:44;-5.50;99.90
12130;DHT22;6128;59.340;18.040;2023-12-07T04:43:12;-5.50;99.90
12130;DHT22;6128;59.340;18.040;2023-12-07T04:45:39;-5.40;99.90
12130;DHT22;6128;59.340;18.040;2023-12-07T04:48:07;-5.40;99.90
12130;DHT22;6128;59.340;18.040;2023-12-07T04:50:34;-5.40;99.90
12130;DHT22;6128;59.340;18.040;2023-12-07T04:53:01;-5.40;99.90
12130;DHT22;6128;59.340;18.040;2023-12-07T04:55:28;-5.30;99.90
12130;DHT22;6128;59.340;18.040;2023-12-07T04:57:55;-5.30;99.90
12130;DHT22;6128;59.340;18.040;2023-12-07T05:00:23;-5.20;99.90
12130;DHT22;6128;59.340;18.040;2023-12-07T05:02:51;-5.20;99.90
12130;DHT22;6128;59.340;18.040;2023-12-07T05:05:18;-5.10;99.90
12130;DHT22;6128;59.340;18.040;2023-12-07T05:07:45;-5.10;99.90
12130;DHT22;6128;59.340;18.040;2023-12-07T05:10:12;-5.10;99.90
12130;DHT22;6128;59.340;18.040;2023-12-07T05:12:40;-5.00;99.90
12130;DHT22;6128;59.340;18.040;2023-12-07T05:15:07;-4.90;99.90
12130;DHT22;6128;59.340;18.040;2023-12-07T05:17:36;-4.90;99.90
12130;DHT22;6128;59.340;18.040;2023-12-07T05:20:04;-4.80;99.90
12130;DHT22;6128;59.340;18.040;2023-12-07T05:22:32;-4.70;99.90
12130;DHT22;6128;59.340;18.040;2023-12-07T05:24:59;-4.70;99.90
12130;DHT22;6128;59.340;18.040;2023-12-07T05:27:26;-4.70;99.90
12130;DHT22;6128;59.340;18.040;2023-12-07T05:29:53;-4.70;99.90
12130;DHT22;6128;59.340;18.040;2023-12-07T05:32:20;-4.70;99.90
12130;DHT22;6128;59.340;18.040;2023-12-07T05:34:49;-4.70;99.90
12130;DHT22;6128;59.340;18.040;2023-12-07T05:37:16;-4.70;99.90
12130;DHT22;6128;59.340;18.040;2023-12-07T05:39:43;-4.70;99.90
12130;DHT22;6128;59.340;18.040;2023-12-07T05:42:10;-4.70;99.90
12130;DHT22;6128;59.340;18.040;2023-12-07T05:44:37;-4.70;99.90
12130;DHT22;6128;59.340;18.040;2023-12-07T05:47:04;-4.70;99.90
12130;DHT22;6128;59.340;18.040;2023-12-07T05:49:31;-4.70;99.90
12130;DHT22;6128;59.340;18.040;2023-12-07T05:52:00;-4.70;99.90
12130;DHT22;6128;59.340;18.040;2023-12-07T05:54:28;-4.70;99.90
12130;DHT22;6128;59.340;18.040;2023-12-07T05:56:55;-4.60;99.90
12130;DHT22;6128;59.340;18.040;2023-12-07T05:59:22;-4.60;99.90
12130;DHT22;6128;59.340;18.040;2023-12-07T06:01:51;-4.60;99.90
12130;DHT22;6128;59.340;18.040;2023-12-07T06:04:19;-4.60;99.90
12130;DHT22;6128;59.340;18.040;2023-12-07T06:06:46;-4.60;99.90
12130;DHT22;6128;59.340;18.040;2023-12-07T06:09:14;-4.50;99.90
12130;DHT22;6128;59.340;18.040;2023-12-07T06:11:41;-4.50;99.90
12130;DHT22;6128;59.340;18.040;2023-12-07T06:14:09;-4.50;99.90
12130;DHT22;6128;59.340;18.040;2023-12-07T06:16:36;-4.50;99.90
12130;DHT22;6128;59.340;18.040;2023-12-07T06:19:03;-4.40;99.90
12130;DHT22;6128;59.340;18.040;2023-12-07T06:21:30;-4.30;99.90
12130;DHT22;6128;59.340;18.040;2023-12-07T06:23:58;-4.30;99.90
12130;DHT22;6128;59.340;18.040;2023-12-07T06:26:27;-4.20;99.90
12130;DHT22;6128;59.340;18.040;2023-12-07T06:28:54;-4.20;99.90
12130;DHT22;6128;59.340;18.040;2023-12-07T06:31:21;-4.20;99.90
12130;DHT22;6128;59.340;18.040;2023-12-07T06:33:48;-4.10;99.90
12130;DHT22;6128;59.340;18.040;2023-12-07T06:36:19;-4.00;99.90
12130;DHT22;6128;59.340;18.040;2023-12-07T06:38:47;-4.00;99.90
12130;DHT22;6128;59.340;18.040;2023-12-07T06:41:14;-3.90;99.90
12130;DHT22;6128;59.340;18.040;2023-12-07T06:43:44;-4.00;99.90
12130;DHT22;6128;59.340;18.040;2023-12-07T06:46:12;-3.90;99.90
12130;DHT22;6128;59.340;18.040;2023-12-07T06:48:43;-3.90;99.90
12130;DHT22;6128;59.340;18.040;2023-12-07T06:51:15;-3.90;99.90
12130;DHT22;6128;59.340;18.040;2023-12-07T06:53:42;-3.90;99.90
12130;DHT22;6128;59.340;18.040;2023-12-07T06:56:09;-3.80;99.90
12130;DHT22;6128;59.340;18.040;2023-12-07T06:58:36;-3.80;99.90
12130;DHT22;6128;59.340;18.040;2023-12-07T07:01:05;-3.80;99.90
12130;DHT22;6128;59.340;18.040;2023-12-07T07:03:32;-3.80;99.90
12130;DHT22;6128;59.340;18.040;2023-12-07T07:06:00;-3.70;99.90
12130;DHT22;6128;59.340;18.040;2023-12-07T07:08:28;-3.70;99.90
12130;DHT22;6128;59.340;18.040;2023-12-07T07:10:55;-3.70;99.90
12130;DHT22;6128;59.340;18.040;2023-12-07T07:13:23;-3.70;99.90
12130;DHT22;6128;59.340;18.040;2023-12-07T07:15:50;-3.60;99.90
12130;DHT22;6128;59.340;18.040;2023-12-07T07:18:18;-3.60;99.90
12130;DHT22;6128;59.340;18.040;2023-12-07T07:20:46;-3.60;99.90
12130;DHT22;6128;59.340;18.040;2023-12-07T07:23:13;-3.60;99.90
12130;DHT22;6128;59.340;18.040;2023-12-07T07:25:40;-3.60;99.90
12130;DHT22;6128;59.340;18.040;2023-12-07T07:28:07;-3.50;99.90
12130;DHT22;6128;59.340;18.040;2023-12-07T07:30:34;-3.50;99.90
12130;DHT22;6128;59.340;18.040;2023-12-07T07:33:01;-3.50;99.90
12130;DHT22;6128;59.340;18.040;2023-12-07T07:35:29;-3.40;99.90
12130;DHT22;6128;59.340;18.040;2023-12-07T07:37:56;-3.40;99.90
12130;DHT22;6128;59.340;18.040;2023-12-07T07:40:23;-3.40;99.90
12130;DHT22;6128;59.340;18.040;2023-12-07T07:42:51;-3.40;99.90
12130;DHT22;6128;59.340;18.040;2023-12-07T07:45:18;-3.40;99.90
12130;DHT22;6128;59.340;18.040;2023-12-07T07:47:45;-3.40;99.90
12130;DHT22;6128;59.340;18.040;2023-12-07T07:50:12;-3.30;99.90
12130;DHT22;6128;59.340;18.040;2023-12-07T07:52:40;-3.30;99.90
12130;DHT22;6128;59.340;18.040;2023-12-07T07:55:08;-3.30;99.90
12130;DHT22;6128;59.340;18.040;2023-12-07T07:57:35;-3.30;99.90
12130;DHT22;6128;59.340;18.040;2023-12-07T08:00:03;-3.30;99.90
12130;DHT22;6128;59.340;18.040;2023-12-07T08:02:31;-3.30;99.90
12130;DHT22;6128;59.340;18.040;2023-12-07T08:04:58;-3.30;99.90
12130;DHT22;6128;59.340;18.040;2023-12-07T08:07:25;-3.20;99.90
12130;DHT22;6128;59.340;18.040;2023-12-07T08:09:53;-3.20;99.90
12130;DHT22;6128;59.340;18.040;2023-12-07T08:12:20;-3.20;99.90
12130;DHT22;6128;59.340;18.040;2023-12-07T08:14:49;-3.10;99.90
12130;DHT22;6128;59.340;18.040;2023-12-07T08:17:15;-3.00;99.90
12130;DHT22;6128;59.340;18.040;2023-12-07T08:19:42;-3.00;99.90
12130;DHT22;6128;59.340;18.040;2023-12-07T08:22:09;-2.90;99.90
12130;DHT22;6128;59.340;18.040;2023-12-07T08:24:38;-2.90;99.90
12130;DHT22;6128;59.340;18.040;2023-12-07T08:27:07;-2.80;99.90
12130;DHT22;6128;59.340;18.040;2023-12-07T08:29:34;-2.80;99.90
12130;DHT22;6128;59.340;18.040;2023-12-07T08:32:02;-2.80;99.90
12130;DHT22;6128;59.340;18.040;2023-12-07T08:34:32;-2.70;99.90
12130;DHT22;6128;59.340;18.040;2023-12-07T08:36:59;-2.70;99.90
12130;DHT22;6128;59.340;18.040;2023-12-07T08:39:26;-2.70;99.90
12130;DHT22;6128;59.340;18.040;2023-12-07T08:41:54;-2.70;99.90
12130;DHT22;6128;59.340;18.040;2023-12-07T08:44:22;-2.60;99.90
12130;DHT22;6128;59.340;18.040;2023-12-07T08:46:49;-2.60;99.90
12130;DHT22;6128;59.340;18.040;2023-12-07T08:49:16;-2.50;99.90
12130;DHT22;6128;59.340;18.040;2023-12-07T08:51:43;-2.50;99.90
12130;DHT22;6128;59.340;18.040;2023-12-07T08:54:10;-2.40;99.90
12130;DHT22;6128;59.340;18.040;2023-12-07T08:56:37;-2.40;99.90
12130;DHT22;6128;59.340;18.040;2023-12-07T08:59:04;-2.30;99.90
12130;DHT22;6128;59.340;18.040;2023-12-07T09:01:33;-2.20;99.90
12130;DHT22;6128;59.340;18.040;2023-12-07T09:04:00;-2.20;99.90
12130;DHT22;6128;59.340;18.040;2023-12-07T09:06:28;-2.20;99.90
12130;DHT22;6128;59.340;18.040;2023-12-07T09:08:55;-2.10;99.90
12130;DHT22;6128;59.340;18.040;2023-12-07T09:11:23;-2.00;99.90
12130;DHT22;6128;59.340;18.040;2023-12-07T09:13:50;-1.90;99.90
12130;DHT22;6128;59.340;18.040;2023-12-07T09:16:17;-1.90;99.90
12130;DHT22;6128;59.340;18.040;2023-12-07T09:18:45;-1.80;99.90
12130;DHT22;6128;59.340;18.040;2023-12-07T09:21:12;-1.70;99.90
12130;DHT22;6128;59.340;18.040;2023-12-07T09:23:40;-1.60;99.90
12130;DHT22;6128;59.340;18.040;2023-12-07T09:26:07;-1.60;99.90
12130;DHT22;6128;59.340;18.040;2023-12-07T09:28:34;-1.50;99.90
12130;DHT22;6128;59.340;18.040;2023-12-07T09:31:01;-1.50;99.90
12130;DHT22;6128;59.340;18.040;2023-12-07T09:33:28;-1.40;99.90
12130;DHT22;6128;59.340;18.040;2023-12-07T09:35:57;-1.40;99.90
12130;DHT22;6128;59.340;18.040;2023-12-07T09:38:24;-1.30;99.90
12130;DHT22;6128;59.340;18.040;2023-12-07T09:40:53;-1.30;99.90
12130;DHT22;6128;59.340;18.040;2023-12-07T09:43:21;-1.30;99.90
12130;DHT22;6128;59.340;18.040;2023-12-07T09:45:48;-1.30;99.90
12130;DHT22;6128;59.340;18.040;2023-12-07T09:48:18;-1.30;99.90
12130;DHT22;6128;59.340;18.040;2023-12-07T09:50:45;-1.30;99.90
12130;DHT22;6128;59.340;18.040;2023-12-07T09:53:13;-1.30;99.90
12130;DHT22;6128;59.340;18.040;2023-12-07T09:55:40;-1.30;99.90
12130;DHT22;6128;59.340;18.040;2023-12-07T09:58:08;-1.30;99.90
12130;DHT22;6128;59.340;18.040;2023-12-07T10:00:35;-1.30;99.90
12130;DHT22;6128;59.340;18.040;2023-12-07T10:03:02;-1.30;99.90
12130;DHT22;6128;59.340;18.040;2023-12-07T10:05:30;-1.30;99.90
12130;DHT22;6128;59.340;18.040;2023-12-07T10:07:57;-1.20;99.90
12130;DHT22;6128;59.340;18.040;2023-12-07T10:10:25;-1.20;99.90
12130;DHT22;6128;59.340;18.040;2023-12-07T10:12:53;-1.10;99.90
12130;DHT22;6128;59.340;18.040;2023-12-07T10:15:22;-1.00;99.90
12130;DHT22;6128;59.340;18.040;2023-12-07T10:17:50;-1.00;99.90
12130;DHT22;6128;59.340;18.040;2023-12-07T10:20:18;-0.90;99.90
12130;DHT22;6128;59.340;18.040;2023-12-07T10:22:49;-0.90;99.90
12130;DHT22;6128;59.340;18.040;2023-12-07T10:25:29;-0.90;99.90
12130;DHT22;6128;59.340;18.040;2023-12-07T10:27:56;-0.90;99.90
12130;DHT22;6128;59.340;18.040;2023-12-07T10:30:23;-0.90;99.90
12130;DHT22;6128;59.340;18.040;2023-12-07T10:32:51;-0.80;99.90
12130;DHT22;6128;59.340;18.040;2023-12-07T10:35:19;-0.80;99.90
12130;DHT22;6128;59.340;18.040;2023-12-07T10:37:46;-0.80;99.90
12130;DHT22;6128;59.340;18.040;2023-12-07T10:40:15;-0.80;99.90
12130;DHT22;6128;59.340;18.040;2023-12-07T10:42:48;-0.80;99.90
12130;DHT22;6128;59.340;18.040;2023-12-07T10:45:15;-0.70;99.90
12130;DHT22;6128;59.340;18.040;2023-12-07T10:48:02;-0.70;99.90
12130;DHT22;6128;59.340;18.040;2023-12-07T10:50:34;-0.70;99.90
12130;DHT22;6128;59.340;18.040;2023-12-07T10:53:09;-0.70;99.90
12130;DHT22;6128;59.340;18.040;2023-12-07T10:55:41;-0.60;99.90
12130;DHT22;6128;59.340;18.040;2023-12-07T10:58:11;-0.60;99.90
12130;DHT22;6128;59.340;18.040;2023-12-07T11:00:45;-0.60;99.90
12130;DHT22;6128;59.340;18.040;2023-12-07T11:03:15;-0.50;99.90
12130;DHT22;6128;59.340;18.040;2023-12-07T11:05:44;-0.50;99.90
12130;DHT22;6128;59.340;18.040;2023-12-07T11:08:17;-0.50;99.90
12130;DHT22;6128;59.340;18.040;2023-12-07T11:10:53;-0.50;99.90
12130;DHT22;6128;59.340;18.040;2023-12-07T11:13:29;-0.50;99.90
12130;DHT22;6128;59.340;18.040;2023-12-07T11:15:57;-0.50;99.90
12130;DHT22;6128;59.340;18.040;2023-12-07T11:18:28;-0.40;99.90
12130;DHT22;6128;59.340;18.040;2023-12-07T11:20:55;-0.40;99.90
12130;DHT22;6128;59.340;18.040;2023-12-07T11:23:23;-0.40;99.90
12130;DHT22;6128;59.340;18.040;2023-12-07T11:25:52;-0.40;99.90
12130;DHT22;6128;59.340;18.040;2023-12-07T11:28:35;-0.30;99.90
12130;DHT22;6128;59.340;18.040;2023-12-07T11:31:06;-0.30;99.90
12130;DHT22;6128;59.340;18.040;2023-12-07T11:33:33;-0.30;99.90
12130;DHT22;6128;59.340;18.040;2023-12-07T11:36:05;-0.30;99.90
12130;DHT22;6128;59.340;18.040;2023-12-07T11:38:32;-0.20;99.90
12130;DHT22;6128;59.340;18.040;2023-12-07T11:41:00;-0.20;99.90
12130;DHT22;6128;59.340;18.040;2023-12-07T11:43:41;-0.20;99.90
12130;DHT22;6128;59.340;18.040;2023-12-07T11:46:12;-0.20;99.90
12130;DHT22;6128;59.340;18.040;2023-12-07T11:48:46;-0.30;99.90
12130;DHT22;6128;59.340;18.040;2023-12-07T11:51:15;-0.30;99.90
12130;DHT22;6128;59.340;18.040;2023-12-07T11:53:42;-0.30;99.90
12130;DHT22;6128;59.340;18.040;2023-12-07T11:56:10;-0.30;99.90
12130;DHT22;6128;59.340;18.040;2023-12-07T11:58:40;-0.30;99.90
12130;DHT22;6128;59.340;18.040;2023-12-07T12:01:07;-0.30;99.90
12130;DHT22;6128;59.340;18.040;2023-12-07T12:03:35;-0.30;99.90
12130;DHT22;6128;59.340;18.040;2023-12-07T12:06:04;-0.30;99.90
12130;DHT22;6128;59.340;18.040;2023-12-07T12:08:33;-0.30;99.90
12130;DHT22;6128;59.340;18.040;2023-12-07T12:11:00;-0.20;99.90
12130;DHT22;6128;59.340;18.040;2023-12-07T12:13:28;-0.20;99.90
12130;DHT22;6128;59.340;18.040;2023-12-07T12:15:57;-0.10;99.90
12130;DHT22;6128;59.340;18.040;2023-12-07T12:18:24;-0.10;99.90
12130;DHT22;6128;59.340;18.040;2023-12-07T12:20:52;0.00;99.90
12130;DHT22;6128;59.340;18.040;2023-12-07T12:23:19;0.00;99.90
12130;DHT22;6128;59.340;18.040;2023-12-07T12:25:47;0.00;99.90
12130;DHT22;6128;59.340;18.040;2023-12-07T12:28:16;0.00;99.90
12130;DHT22;6128;59.340;18.040;2023-12-07T12:30:44;0.00;99.90
12130;DHT22;6128;59.340;18.040;2023-12-07T12:33:14;0.00;99.90
12130;DHT22;6128;59.340;18.040;2023-12-07T12:35:41;0.10;99.90
12130;DHT22;6128;59.340;18.040;2023-12-07T12:38:11;0.10;99.90
12130;DHT22;6128;59.340;18.040;2023-12-07T12:40:39;0.20;99.90
12130;DHT22;6128;59.340;18.040;2023-12-07T12:43:07;0.30;99.90
12130;DHT22;6128;59.340;18.040;2023-12-07T12:45:34;0.30;99.90
12130;DHT22;6128;59.340;18.040;2023-12-07T12:48:01;0.30;99.90
12130;DHT22;6128;59.340;18.040;2023-12-07T12:50:37;0.30;99.90
12130;DHT22;6128;59.340;18.040;2023-12-07T12:53:05;0.40;99.90
12130;DHT22;6128;59.340;18.040;2023-12-07T12:55:34;0.40;99.90
12130;DHT22;6128;59.340;18.040;2023-12-07T12:58:04;0.40;99.90
12130;DHT22;6128;59.340;18.040;2023-12-07T13:00:31;0.40;99.90
12130;DHT22;6128;59.340;18.040;2023-12-07T13:02:59;0.40;99.90
12130;DHT22;6128;59.340;18.040;2023-12-07T13:05:27;0.50;99.90
12130;DHT22;6128;59.340;18.040;2023-12-07T13:07:55;0.50;99.90
12130;DHT22;6128;59.340;18.040;2023-12-07T13:10:22;0.50;99.90
12130;DHT22;6128;59.340;18.040;2023-12-07T13:12:49;0.50;99.90
12130;DHT22;6128;59.340;18.040;2023-12-07T13:15:16;0.50;99.90
12130;DHT22;6128;59.340;18.040;2023-12-07T13:17:44;0.50;99.90
12130;DHT22;6128;59.340;18.040;2023-12-07T13:20:11;0.50;99.90
12130;DHT22;6128;59.340;18.040;2023-12-07T13:22:42;0.50;99.90
12130;DHT22;6128;59.340;18.040;2023-12-07T13:25:12;0.50;99.90
12130;DHT22;6128;59.340;18.040;2023-12-07T13:27:40;0.50;99.90
12130;DHT22;6128;59.340;18.040;2023-12-07T13:30:13;0.50;99.90
12130;DHT22;6128;59.340;18.040;2023-12-07T13:32:40;0.50;99.90
12130;DHT22;6128;59.340;18.040;2023-12-07T13:35:12;0.50;99.90
12130;DHT22;6128;59.340;18.040;2023-12-07T13:37:44;0.60;99.90
12130;DHT22;6128;59.340;18.040;2023-12-07T13:40:13;0.60;99.90
12130;DHT22;6128;59.340;18.040;2023-12-07T13:42:42;0.60;99.90
12130;DHT22;6128;59.340;18.040;2023-12-07T13:45:09;0.70;99.90
12130;DHT22;6128;59.340;18.040;2023-12-07T13:47:37;0.70;99.90
12130;DHT22;6128;59.340;18.040;2023-12-07T13:50:05;0.70;99.90
12130;DHT22;6128;59.340;18.040;2023-12-07T13:52:33;0.70;99.90
12130;DHT22;6128;59.340;18.040;2023-12-07T13:55:01;0.70;99.90
12130;DHT22;6128;59.340;18.040;2023-12-07T13:57:29;0.70;99.90
12130;DHT22;6128;59.340;18.040;2023-12-07T13:59:57;0.70;99.90
12130;DHT22;6128;59.340;18.040;2023-12-07T14:02:24;0.70;99.90
12130;DHT22;6128;59.340;18.040;2023-12-07T14:04:54;0.70;99.90
12130;DHT22;6128;59.340;18.040;2023-12-07T14:07:21;0.70;99.90
12130;DHT22;6128;59.340;18.040;2023-12-07T14:09:50;0.70;99.90
12130;DHT22;6128;59.340;18.040;2023-12-07T14:12:17;0.70;99.90
12130;DHT22;6128;59.340;18.040;2023-12-07T14:14:48;0.80;99.90
12130;DHT22;6128;59.340;18.040;2023-12-07T14:17:16;0.70;99.90
12130;DHT22;6128;59.340;18.040;2023-12-07T14:19:43;0.70;99.90
12130;DHT22;6128;59.340;18.040;2023-12-07T14:22:10;0.70;99.90
12130;DHT22;6128;59.340;18.040;2023-12-07T14:24:37;0.70;99.90
12130;DHT22;6128;59.340;18.040;2023-12-07T14:27:05;0.70;99.90
12130;DHT22;6128;59.340;18.040;2023-12-07T14:29:33;0.70;99.90
12130;DHT22;6128;59.340;18.040;2023-12-07T14:32:01;0.70;99.90
12130;DHT22;6128;59.340;18.040;2023-12-07T14:34:28;0.70;99.90
12130;DHT22;6128;59.340;18.040;2023-12-07T14:36:55;0.70;99.90
12130;DHT22;6128;59.340;18.040;2023-12-07T14:39:22;0.70;99.90
12130;DHT22;6128;59.340;18.040;2023-12-07T14:41:50;0.70;99.90
12130;DHT22;6128;59.340;18.040;2023-12-07T14:44:18;0.80;99.90
12130;DHT22;6128;59.340;18.040;2023-12-07T14:46:46;0.80;99.90
12130;DHT22;6128;59.340;18.040;2023-12-07T14:49:16;0.80;99.90
12130;DHT22;6128;59.340;18.040;2023-12-07T14:51:45;0.80;99.90
12130;DHT22;6128;59.340;18.040;2023-12-07T14:54:12;0.90;99.90
12130;DHT22;6128;59.340;18.040;2023-12-07T14:56:39;0.80;99.90
12130;DHT22;6128;59.340;18.040;2023-12-07T14:59:07;0.80;99.90
12130;DHT22;6128;59.340;18.040;2023-12-07T15:01:36;0.80;99.90
12130;DHT22;6128;59.340;18.040;2023-12-07T15:04:04;0.90;99.90
12130;DHT22;6128;59.340;18.040;2023-12-07T15:06:32;0.90;99.90
12130;DHT22;6128;59.340;18.040;2023-12-07T15:09:00;0.90;99.90
12130;DHT22;6128;59.340;18.040;2023-12-07T15:11:31;0.90;99.90
12130;DHT22;6128;59.340;18.040;2023-12-07T15:13:58;0.90;99.90
12130;DHT22;6128;59.340;18.040;2023-12-07T15:16:25;0.90;99.90
12130;DHT22;6128;59.340;18.040;2023-12-07T15:18:53;0.90;99.90
12130;DHT22;6128;59.340;18.040;2023-12-07T15:21:20;0.90;99.90
12130;DHT22;6128;59.340;18.040;2023-12-07T15:23:50;0.80;99.90
12130;DHT22;6128;59.340;18.040;2023-12-07T15:26:17;0.80;99.90
12130;DHT22;6128;59.340;18.040;2023-12-07T15:28:44;0.80;99.90
12130;DHT22;6128;59.340;18.040;2023-12-07T15:31:12;0.80;99.90
12130;DHT22;6128;59.340;18.040;2023-12-07T15:33:39;0.80;99.90
12130;DHT22;6128;59.340;18.040;2023-12-07T15:36:06;0.80;99.90
12130;DHT22;6128;59.340;18.040;2023-12-07T15:38:33;0.80;99.90
12130;DHT22;6128;59.340;18.040;2023-12-07T15:41:02;0.80;99.90